sensor_id;sensor_type;location;lat;lon;timestamp;P1;durP1;ratioP1;P2;durP2;ratioP2
38023;SDS011;23834;48.080;11.682;2023-02-04T00:02:03;0.50;;;0.50;;
38023;SDS011;23834;48.080;11.682;2023-02-04T00:04:28;0.60;;;0.60;;
38023;SDS011;23834;48.080;11.682;2023-02-04T00:06:53;0.70;;;0.40;;
38023;SDS011;23834;48.080;11.682;2023-02-04T00:09:18;0.60;;;0.57;;
38023;SDS011;23834;48.080;11.682;2023-02-04T00:11:43;0.50;;;0.40;;
38023;SDS011;23834;48.080;11.682;2023-02-04T00:14:09;1.07;;;0.40;;
38023;SDS011;23834;48.080;11.682;2023-02-04T00:16:34;0.50;;;0.47;;
38023;SDS011;23834;48.080;11.682;2023-02-04T00:18:59;0.50;;;0.47;;
38023;SDS011;23834;48.080;11.682;2023-02-04T00:21:25;0.50;;;0.40;;
38023;SDS011;23834;48.080;11.682;2023-02-04T00:23:50;0.50;;;0.50;;
38023;SDS011;23834;48.080;11.682;2023-02-04T00:26:15;0.50;;;0.47;;
38023;SDS011;23834;48.080;11.682;2023-02-04T00:28:40;0.60;;;0.60;;
38023;SDS011;23834;48.080;11.682;2023-02-04T00:31:05;1.70;;;0.40;;
38023;SDS011;23834;48.080;11.682;2023-02-04T00:33:31;0.60;;;0.60;;
38023;SDS011;23834;48.080;11.682;2023-02-04T00:35:56;0.60;;;0.50;;
38023;SDS011;23834;48.080;11.682;2023-02-04T00:38:21;0.50;;;0.47;;
38023;SDS011;23834;48.080;11.682;2023-02-04T00:40:47;0.80;;;0.60;;
38023;SDS011;23834;48.080;11.682;2023-02-04T00:43:12;0.50;;;0.50;;
38023;SDS011;23834;48.080;11.682;2023-02-04T00:45:37;0.60;;;0.50;;
38023;SDS011;23834;48.080;11.682;2023-02-04T00:48:02;0.70;;;0.40;;
38023;SDS011;23834;48.080;11.682;2023-02-04T00:50:27;0.50;;;0.50;;
38023;SDS011;23834;48.080;11.682;2023-02-04T00:52:53;0.40;;;0.40;;
38023;SDS011;23834;48.080;11.682;2023-02-04T00:55:18;0.50;;;0.50;;
38023;SDS011;23834;48.080;11.682;2023-02-04T00:57:44;0.40;;;0.37;;
38023;SDS011;23834;48.080;11.682;2023-02-04T01:00:11;0.70;;;0.50;;
38023;SDS011;23834;48.080;11.682;2023-02-04T01:02:37;0.40;;;0.30;;
38023;SDS011;23834;48.080;11.682;2023-02-04T01:05:04;0.60;;;0.50;;
38023;SDS011;23834;48.080;11.682;2023-02-04T01:07:29;0.60;;;0.60;;
38023;SDS011;23834;48.080;11.682;2023-02-04T01:09:55;0.50;;;0.50;;
38023;SDS011;23834;48.080;11.682;2023-02-04T01:12:20;0.40;;;0.40;;
38023;SDS011;23834;48.080;11.682;2023-02-04T01:14:46;0.70;;;0.50;;
38023;SDS011;23834;48.080;11.682;2023-02-04T01:17:12;0.73;;;0.50;;
38023;SDS011;23834;48.080;11.682;2023-02-04T01:19:37;0.60;;;0.50;;
38023;SDS011;23834;48.080;11.682;2023-02-04T01:22:02;0.50;;;0.30;;
38023;SDS011;23834;48.080;11.682;2023-02-04T01:24:27;0.50;;;0.50;;
38023;SDS011;23834;48.080;11.682;2023-02-04T01:26:52;0.50;;;0.40;;
38023;SDS011;23834;48.080;11.682;2023-02-04T01:29:18;0.50;;;0.43;;
38023;SDS011;23834;48.080;11.682;2023-02-04T01:31:43;0.40;;;0.30;;
38023;SDS011;23834;48.080;11.682;2023-02-04T01:34:08;0.60;;;0.40;;
38023;SDS011;23834;48.080;11.682;2023-02-04T01:36:33;0.50;;;0.50;;
38023;SDS011;23834;48.080;11.682;2023-02-04T01:38:58;0.50;;;0.40;;
38023;SDS011;23834;48.080;11.682;2023-02-04T01:41:25;0.50;;;0.40;;
38023;SDS011;23834;48.080;11.682;2023-02-04T01:43:50;0.40;;;0.30;;
38023;SDS011;23834;48.080;11.682;2023-02-04T01:46:15;0.40;;;0.30;;
38023;SDS011;23834;48.080;11.682;2023-02-04T01:48:41;0.50;;;0.40;;
38023;SDS011;23834;48.080;11.682;2023-02-04T01:51:07;0.53;;;0.50;;
38023;SDS011;23834;48.080;11.682;2023-02-04T01:53:33;0.50;;;0.40;;
38023;SDS011;23834;48.080;11.682;2023-02-04T01:55:58;0.40;;;0.30;;
38023;SDS011;23834;48.080;11.682;2023-02-04T01:58:24;0.60;;;0.30;;
38023;SDS011;23834;48.080;11.682;2023-02-04T02:00:49;0.50;;;0.40;;
38023;SDS011;23834;48.080;11.682;2023-02-04T02:03:14;0.40;;;0.40;;
38023;SDS011;23834;48.080;11.682;2023-02-04T02:05:43;0.70;;;0.40;;
38023;SDS011;23834;48.080;11.682;2023-02-04T02:08:09;0.70;;;0.40;;
38023;SDS011;23834;48.080;11.682;2023-02-04T02:10:34;0.57;;;0.40;;
38023;SDS011;23834;48.080;11.682;2023-02-04T02:13:00;0.40;;;0.30;;
38023;SDS011;23834;48.080;11.682;2023-02-04T02:15:25;1.03;;;0.40;;
38023;SDS011;23834;48.080;11.682;2023-02-04T02:17:51;0.40;;;0.30;;
38023;SDS011;23834;48.080;11.682;2023-02-04T02:20:17;0.80;;;0.40;;
38023;SDS011;23834;48.080;11.682;2023-02-04T02:25:28;0.67;;;0.50;;
38023;SDS011;23834;48.080;11.682;2023-02-04T02:27:53;0.50;;;0.40;;
38023;SDS011;23834;48.080;11.682;2023-02-04T02:30:19;0.50;;;0.50;;
38023;SDS011;23834;48.080;11.682;2023-02-04T02:32:45;0.50;;;0.40;;
38023;SDS011;23834;48.080;11.682;2023-02-04T02:35:11;0.40;;;0.30;;
38023;SDS011;23834;48.080;11.682;2023-02-04T02:37:36;0.43;;;0.37;;
38023;SDS011;23834;48.080;11.682;2023-02-04T02:40:02;0.50;;;0.43;;
38023;SDS011;23834;48.080;11.682;2023-02-04T02:42:27;0.50;;;0.40;;
38023;SDS011;23834;48.080;11.682;2023-02-04T02:44:53;0.40;;;0.33;;
38023;SDS011;23834;48.080;11.682;2023-02-04T02:47:19;0.40;;;0.40;;
38023;SDS011;23834;48.080;11.682;2023-02-04T02:49:46;0.40;;;0.40;;
38023;SDS011;23834;48.080;11.682;2023-02-04T02:52:12;0.50;;;0.40;;
38023;SDS011;23834;48.080;11.682;2023-02-04T02:54:37;0.53;;;0.40;;
38023;SDS011;23834;48.080;11.682;2023-02-04T02:57:04;0.50;;;0.40;;
38023;SDS011;23834;48.080;11.682;2023-02-04T02:59:34;0.50;;;0.33;;
38023;SDS011;23834;48.080;11.682;2023-02-04T03:01:59;0.40;;;0.40;;
38023;SDS011;23834;48.080;11.682;2023-02-04T03:04:26;0.60;;;0.47;;
38023;SDS011;23834;48.080;11.682;2023-02-04T03:06:51;0.50;;;0.43;;
38023;SDS011;23834;48.080;11.682;2023-02-04T03:09:17;0.50;;;0.40;;
38023;SDS011;23834;48.080;11.682;2023-02-04T03:11:43;1.13;;;0.40;;
38023;SDS011;23834;48.080;11.682;2023-02-04T03:14:08;0.60;;;0.40;;
38023;SDS011;23834;48.080;11.682;2023-02-04T03:16:33;0.60;;;0.57;;
38023;SDS011;23834;48.080;11.682;2023-02-04T03:19:00;0.60;;;0.50;;
38023;SDS011;23834;48.080;11.682;2023-02-04T03:21:26;0.60;;;0.57;;
38023;SDS011;23834;48.080;11.682;2023-02-04T03:23:51;0.50;;;0.50;;
38023;SDS011;23834;48.080;11.682;2023-02-04T03:26:20;0.50;;;0.40;;
38023;SDS011;23834;48.080;11.682;2023-02-04T03:28:45;0.50;;;0.50;;
38023;SDS011;23834;48.080;11.682;2023-02-04T03:31:10;0.90;;;0.50;;
38023;SDS011;23834;48.080;11.682;2023-02-04T03:33:35;0.50;;;0.50;;
38023;SDS011;23834;48.080;11.682;2023-02-04T03:36:01;0.60;;;0.40;;
38023;SDS011;23834;48.080;11.682;2023-02-04T03:38:26;1.53;;;0.70;;
38023;SDS011;23834;48.080;11.682;2023-02-04T03:40:51;0.90;;;0.60;;
38023;SDS011;23834;48.080;11.682;2023-02-04T03:43:16;0.60;;;0.50;;
38023;SDS011;23834;48.080;11.682;2023-02-04T03:45:42;0.70;;;0.50;;
38023;SDS011;23834;48.080;11.682;2023-02-04T03:48:07;0.50;;;0.40;;
38023;SDS011;23834;48.080;11.682;2023-02-04T03:50:32;0.90;;;0.60;;
38023;SDS011;23834;48.080;11.682;2023-02-04T03:52:57;1.27;;;0.50;;
38023;SDS011;23834;48.080;11.682;2023-02-04T03:55:22;0.73;;;0.50;;
38023;SDS011;23834;48.080;11.682;2023-02-04T03:57:50;0.60;;;0.50;;
38023;SDS011;23834;48.080;11.682;2023-02-04T04:00:15;0.70;;;0.60;;
38023;SDS011;23834;48.080;11.682;2023-02-04T04:02:40;0.50;;;0.50;;
38023;SDS011;23834;48.080;11.682;2023-02-04T04:05:06;0.70;;;0.50;;
38023;SDS011;23834;48.080;11.682;2023-02-04T04:07:31;0.77;;;0.67;;
38023;SDS011;23834;48.080;11.682;2023-02-04T04:09:56;0.70;;;0.50;;
38023;SDS011;23834;48.080;11.682;2023-02-04T04:12:22;0.60;;;0.47;;
38023;SDS011;23834;48.080;11.682;2023-02-04T04:14:47;0.70;;;0.60;;
38023;SDS011;23834;48.080;11.682;2023-02-04T04:17:12;1.17;;;0.70;;
38023;SDS011;23834;48.080;11.682;2023-02-04T04:19:37;0.70;;;0.60;;
38023;SDS011;23834;48.080;11.682;2023-02-04T04:22:02;0.87;;;0.50;;
38023;SDS011;23834;48.080;11.682;2023-02-04T04:24:27;0.77;;;0.60;;
38023;SDS011;23834;48.080;11.682;2023-02-04T04:26:53;0.90;;;0.60;;
38023;SDS011;23834;48.080;11.682;2023-02-04T04:29:18;0.60;;;0.60;;
38023;SDS011;23834;48.080;11.682;2023-02-04T04:31:43;0.87;;;0.53;;
38023;SDS011;23834;48.080;11.682;2023-02-04T04:34:09;0.97;;;0.90;;
38023;SDS011;23834;48.080;11.682;2023-02-04T04:36:34;0.80;;;0.50;;
38023;SDS011;23834;48.080;11.682;2023-02-04T04:38:59;0.97;;;0.70;;
38023;SDS011;23834;48.080;11.682;2023-02-04T04:41:24;1.80;;;0.63;;
38023;SDS011;23834;48.080;11.682;2023-02-04T04:43:49;0.70;;;0.63;;
38023;SDS011;23834;48.080;11.682;2023-02-04T04:46:14;1.10;;;0.70;;
38023;SDS011;23834;48.080;11.682;2023-02-04T04:48:40;0.90;;;0.60;;
38023;SDS011;23834;48.080;11.682;2023-02-04T04:51:05;0.57;;;0.57;;
38023;SDS011;23834;48.080;11.682;2023-02-04T04:53:30;1.20;;;0.70;;
38023;SDS011;23834;48.080;11.682;2023-02-04T04:55:55;0.97;;;0.43;;
38023;SDS011;23834;48.080;11.682;2023-02-04T04:58:20;0.77;;;0.50;;
38023;SDS011;23834;48.080;11.682;2023-02-04T05:00:45;1.20;;;0.67;;
38023;SDS011;23834;48.080;11.682;2023-02-04T05:03:11;0.90;;;0.70;;
38023;SDS011;23834;48.080;11.682;2023-02-04T05:05:36;0.70;;;0.70;;
38023;SDS011;23834;48.080;11.682;2023-02-04T05:08:05;1.17;;;1.00;;
38023;SDS011;23834;48.080;11.682;2023-02-04T05:10:30;0.70;;;0.70;;
38023;SDS011;23834;48.080;11.682;2023-02-04T05:12:56;0.70;;;0.63;;
38023;SDS011;23834;48.080;11.682;2023-02-04T05:15:21;0.87;;;0.50;;
38023;SDS011;23834;48.080;11.682;2023-02-04T05:17:46;0.80;;;0.60;;
38023;SDS011;23834;48.080;11.682;2023-02-04T05:20:11;1.33;;;0.70;;
38023;SDS011;23834;48.080;11.682;2023-02-04T05:22:36;0.77;;;0.60;;
38023;SDS011;23834;48.080;11.682;2023-02-04T05:25:02;0.93;;;0.67;;
38023;SDS011;23834;48.080;11.682;2023-02-04T05:27:27;1.03;;;0.80;;
38023;SDS011;23834;48.080;11.682;2023-02-04T05:29:52;0.60;;;0.50;;
38023;SDS011;23834;48.080;11.682;2023-02-04T05:32:17;0.60;;;0.50;;
38023;SDS011;23834;48.080;11.682;2023-02-04T05:34:42;1.43;;;0.73;;
38023;SDS011;23834;48.080;11.682;2023-02-04T05:37:08;1.27;;;0.70;;
38023;SDS011;23834;48.080;11.682;2023-02-04T05:39:33;1.37;;;0.63;;
38023;SDS011;23834;48.080;11.682;2023-02-04T05:41:58;0.80;;;0.57;;
38023;SDS011;23834;48.080;11.682;2023-02-04T05:44:23;0.73;;;0.60;;
38023;SDS011;23834;48.080;11.682;2023-02-04T05:46:48;0.73;;;0.70;;
38023;SDS011;23834;48.080;11.682;2023-02-04T05:49:13;1.83;;;0.80;;
38023;SDS011;23834;48.080;11.682;2023-02-04T05:51:39;0.63;;;0.63;;
38023;SDS011;23834;48.080;11.682;2023-02-04T05:54:04;0.80;;;0.60;;
38023;SDS011;23834;48.080;11.682;2023-02-04T05:56:29;0.90;;;0.60;;
38023;SDS011;23834;48.080;11.682;2023-02-04T05:58:55;1.37;;;0.93;;
38023;SDS011;23834;48.080;11.682;2023-02-04T06:01:20;1.00;;;0.77;;
38023;SDS011;23834;48.080;11.682;2023-02-04T06:03:45;0.90;;;0.80;;
38023;SDS011;23834;48.080;11.682;2023-02-04T06:06:10;1.03;;;0.70;;
38023;SDS011;23834;48.080;11.682;2023-02-04T06:08:35;0.63;;;0.57;;
38023;SDS011;23834;48.080;11.682;2023-02-04T06:11:01;1.83;;;0.80;;
38023;SDS011;23834;48.080;11.682;2023-02-04T06:13:26;1.53;;;0.77;;
38023;SDS011;23834;48.080;11.682;2023-02-04T06:15:51;0.87;;;0.73;;
38023;SDS011;23834;48.080;11.682;2023-02-04T06:18:16;1.50;;;0.70;;
38023;SDS011;23834;48.080;11.682;2023-02-04T06:20:41;1.00;;;0.73;;
38023;SDS011;23834;48.080;11.682;2023-02-04T06:23:07;0.90;;;0.80;;
38023;SDS011;23834;48.080;11.682;2023-02-04T06:25:32;0.97;;;0.80;;
38023;SDS011;23834;48.080;11.682;2023-02-04T06:27:57;0.80;;;0.60;;
38023;SDS011;23834;48.080;11.682;2023-02-04T06:30:22;0.80;;;0.70;;
38023;SDS011;23834;48.080;11.682;2023-02-04T06:32:47;0.73;;;0.70;;
38023;SDS011;23834;48.080;11.682;2023-02-04T06:35:12;0.70;;;0.70;;
38023;SDS011;23834;48.080;11.682;2023-02-04T06:37:39;3.00;;;0.80;;
38023;SDS011;23834;48.080;11.682;2023-02-04T06:40:04;0.70;;;0.70;;
38023;SDS011;23834;48.080;11.682;2023-02-04T06:42:30;2.67;;;0.73;;
38023;SDS011;23834;48.080;11.682;2023-02-04T06:44:55;1.13;;;0.97;;
38023;SDS011;23834;48.080;11.682;2023-02-04T06:47:20;1.47;;;0.80;;
38023;SDS011;23834;48.080;11.682;2023-02-04T06:49:46;1.00;;;0.60;;
38023;SDS011;23834;48.080;11.682;2023-02-04T06:52:11;1.33;;;0.73;;
38023;SDS011;23834;48.080;11.682;2023-02-04T06:54:36;1.70;;;0.80;;
38023;SDS011;23834;48.080;11.682;2023-02-04T06:57:01;1.77;;;0.80;;
38023;SDS011;23834;48.080;11.682;2023-02-04T06:59:33;0.67;;;0.67;;
38023;SDS011;23834;48.080;11.682;2023-02-04T07:01:59;1.07;;;0.77;;
38023;SDS011;23834;48.080;11.682;2023-02-04T07:04:24;0.70;;;0.70;;
38023;SDS011;23834;48.080;11.682;2023-02-04T07:06:49;0.90;;;0.70;;
38023;SDS011;23834;48.080;11.682;2023-02-04T07:09:14;0.60;;;0.60;;
38023;SDS011;23834;48.080;11.682;2023-02-04T07:11:39;1.00;;;0.80;;
38023;SDS011;23834;48.080;11.682;2023-02-04T07:14:05;1.10;;;0.80;;
38023;SDS011;23834;48.080;11.682;2023-02-04T07:16:30;0.90;;;0.70;;
38023;SDS011;23834;48.080;11.682;2023-02-04T07:18:55;0.90;;;0.90;;
38023;SDS011;23834;48.080;11.682;2023-02-04T07:21:20;1.57;;;1.00;;
38023;SDS011;23834;48.080;11.682;2023-02-04T07:23:45;1.13;;;0.83;;
38023;SDS011;23834;48.080;11.682;2023-02-04T07:26:10;1.20;;;0.97;;
38023;SDS011;23834;48.080;11.682;2023-02-04T07:28:36;1.13;;;1.03;;
38023;SDS011;23834;48.080;11.682;2023-02-04T07:31:01;0.73;;;0.70;;
38023;SDS011;23834;48.080;11.682;2023-02-04T07:33:26;1.03;;;0.70;;
38023;SDS011;23834;48.080;11.682;2023-02-04T07:35:51;1.20;;;0.90;;
38023;SDS011;23834;48.080;11.682;2023-02-04T07:38:16;0.87;;;0.87;;
38023;SDS011;23834;48.080;11.682;2023-02-04T07:40:41;1.00;;;0.90;;
38023;SDS011;23834;48.080;11.682;2023-02-04T07:43:07;2.00;;;0.90;;
38023;SDS011;23834;48.080;11.682;2023-02-04T07:45:32;2.27;;;0.97;;
38023;SDS011;23834;48.080;11.682;2023-02-04T07:47:57;1.00;;;0.80;;
38023;SDS011;23834;48.080;11.682;2023-02-04T07:50:22;1.30;;;0.80;;
38023;SDS011;23834;48.080;11.682;2023-02-04T07:52:47;1.70;;;1.00;;
38023;SDS011;23834;48.080;11.682;2023-02-04T07:55:13;0.70;;;0.70;;
38023;SDS011;23834;48.080;11.682;2023-02-04T07:57:38;2.43;;;1.10;;
38023;SDS011;23834;48.080;11.682;2023-02-04T08:00:03;1.60;;;0.90;;
38023;SDS011;23834;48.080;11.682;2023-02-04T08:02:29;0.93;;;0.80;;
38023;SDS011;23834;48.080;11.682;2023-02-04T08:04:54;1.10;;;1.00;;
38023;SDS011;23834;48.080;11.682;2023-02-04T08:07:19;1.87;;;0.97;;
38023;SDS011;23834;48.080;11.682;2023-02-04T08:09:45;1.10;;;1.00;;
38023;SDS011;23834;48.080;11.682;2023-02-04T08:12:11;1.37;;;1.07;;
38023;SDS011;23834;48.080;11.682;2023-02-04T08:14:36;1.40;;;1.03;;
38023;SDS011;23834;48.080;11.682;2023-02-04T08:17:01;1.47;;;1.13;;
38023;SDS011;23834;48.080;11.682;2023-02-04T08:19:26;1.43;;;0.87;;
38023;SDS011;23834;48.080;11.682;2023-02-04T08:21:51;1.20;;;0.90;;
38023;SDS011;23834;48.080;11.682;2023-02-04T08:24:17;0.90;;;0.70;;
38023;SDS011;23834;48.080;11.682;2023-02-04T08:26:43;1.10;;;0.87;;
38023;SDS011;23834;48.080;11.682;2023-02-04T08:29:08;1.20;;;0.87;;
38023;SDS011;23834;48.080;11.682;2023-02-04T08:31:34;1.10;;;0.93;;
38023;SDS011;23834;48.080;11.682;2023-02-04T08:34:00;1.80;;;1.00;;
38023;SDS011;23834;48.080;11.682;2023-02-04T08:36:26;0.80;;;0.70;;
38023;SDS011;23834;48.080;11.682;2023-02-04T08:38:51;1.30;;;0.80;;
38023;SDS011;23834;48.080;11.682;2023-02-04T08:41:16;0.87;;;0.87;;
38023;SDS011;23834;48.080;11.682;2023-02-04T08:43:41;1.00;;;0.90;;
38023;SDS011;23834;48.080;11.682;2023-02-04T08:46:06;1.30;;;1.20;;
38023;SDS011;23834;48.080;11.682;2023-02-04T08:48:31;1.37;;;0.77;;
38023;SDS011;23834;48.080;11.682;2023-02-04T08:50:57;1.10;;;1.00;;
38023;SDS011;23834;48.080;11.682;2023-02-04T08:53:22;2.07;;;1.00;;
38023;SDS011;23834;48.080;11.682;2023-02-04T08:55:47;1.07;;;0.87;;
38023;SDS011;23834;48.080;11.682;2023-02-04T08:58:12;1.00;;;0.90;;
38023;SDS011;23834;48.080;11.682;2023-02-04T09:00:37;3.70;;;1.13;;
38023;SDS011;23834;48.080;11.682;2023-02-04T09:03:03;1.83;;;1.10;;
38023;SDS011;23834;48.080;11.682;2023-02-04T09:05:28;1.60;;;1.20;;
38023;SDS011;23834;48.080;11.682;2023-02-04T09:07:53;1.10;;;1.00;;
38023;SDS011;23834;48.080;11.682;2023-02-04T09:10:18;1.07;;;0.90;;
38023;SDS011;23834;48.080;11.682;2023-02-04T09:12:43;1.17;;;1.00;;
38023;SDS011;23834;48.080;11.682;2023-02-04T09:15:09;0.73;;;0.73;;
38023;SDS011;23834;48.080;11.682;2023-02-04T09:17:34;1.10;;;1.00;;
38023;SDS011;23834;48.080;11.682;2023-02-04T09:20:00;0.90;;;0.90;;
38023;SDS011;23834;48.080;11.682;2023-02-04T09:22:25;1.27;;;0.70;;
38023;SDS011;23834;48.080;11.682;2023-02-04T09:24:50;1.90;;;1.10;;
38023;SDS011;23834;48.080;11.682;2023-02-04T09:27:15;0.90;;;0.90;;
38023;SDS011;23834;48.080;11.682;2023-02-04T09:29:40;1.10;;;0.87;;
38023;SDS011;23834;48.080;11.682;2023-02-04T09:32:06;0.80;;;0.80;;
38023;SDS011;23834;48.080;11.682;2023-02-04T09:34:31;1.50;;;1.13;;
38023;SDS011;23834;48.080;11.682;2023-02-04T09:36:56;0.93;;;0.90;;
38023;SDS011;23834;48.080;11.682;2023-02-04T09:39:21;1.70;;;1.03;;
38023;SDS011;23834;48.080;11.682;2023-02-04T09:41:46;1.50;;;1.00;;
38023;SDS011;23834;48.080;11.682;2023-02-04T09:44:13;1.40;;;1.27;;
38023;SDS011;23834;48.080;11.682;2023-02-04T09:46:41;1.53;;;1.03;;
38023;SDS011;23834;48.080;11.682;2023-02-04T09:49:08;1.37;;;1.00;;
38023;SDS011;23834;48.080;11.682;2023-02-04T09:51:34;1.20;;;1.00;;
38023;SDS011;23834;48.080;11.682;2023-02-04T09:54:10;0.90;;;0.80;;
38023;SDS011;23834;48.080;11.682;2023-02-04T09:56:36;1.17;;;0.90;;
38023;SDS011;23834;48.080;11.682;2023-02-04T09:59:03;2.07;;;1.23;;
38023;SDS011;23834;48.080;11.682;2023-02-04T10:01:28;0.90;;;0.90;;
38023;SDS011;23834;48.080;11.682;2023-02-04T10:03:53;0.80;;;0.80;;
38023;SDS011;23834;48.080;11.682;2023-02-04T10:06:20;1.03;;;0.80;;
38023;SDS011;23834;48.080;11.682;2023-02-04T10:08:47;0.70;;;0.60;;
38023;SDS011;23834;48.080;11.682;2023-02-04T10:11:13;0.90;;;0.80;;
38023;SDS011;23834;48.080;11.682;2023-02-04T10:13:42;1.50;;;1.03;;
38023;SDS011;23834;48.080;11.682;2023-02-04T10:16:12;1.20;;;1.10;;
38023;SDS011;23834;48.080;11.682;2023-02-04T10:18:37;1.23;;;1.07;;
38023;SDS011;23834;48.080;11.682;2023-02-04T10:21:22;2.40;;;0.90;;
38023;SDS011;23834;48.080;11.682;2023-02-04T10:23:49;1.20;;;1.10;;
38023;SDS011;23834;48.080;11.682;2023-02-04T10:26:15;1.00;;;0.90;;
38023;SDS011;23834;48.080;11.682;2023-02-04T10:28:41;1.10;;;1.00;;
38023;SDS011;23834;48.080;11.682;2023-02-04T10:31:24;2.00;;;0.80;;
38023;SDS011;23834;48.080;11.682;2023-02-04T10:33:50;0.80;;;0.80;;
38023;SDS011;23834;48.080;11.682;2023-02-04T10:36:25;1.30;;;0.90;;
38023;SDS011;23834;48.080;11.682;2023-02-04T10:39:04;1.20;;;0.63;;
38023;SDS011;23834;48.080;11.682;2023-02-04T10:41:29;1.00;;;0.90;;
38023;SDS011;23834;48.080;11.682;2023-02-04T10:44:04;1.67;;;0.93;;
38023;SDS011;23834;48.080;11.682;2023-02-04T10:46:30;0.90;;;0.90;;
38023;SDS011;23834;48.080;11.682;2023-02-04T10:48:55;1.03;;;0.73;;
38023;SDS011;23834;48.080;11.682;2023-02-04T10:51:21;1.10;;;1.00;;
38023;SDS011;23834;48.080;11.682;2023-02-04T10:53:46;1.07;;;0.90;;
38023;SDS011;23834;48.080;11.682;2023-02-04T10:56:29;1.53;;;0.93;;
38023;SDS011;23834;48.080;11.682;2023-02-04T10:58:55;1.70;;;1.00;;
38023;SDS011;23834;48.080;11.682;2023-02-04T11:01:20;1.13;;;0.93;;
38023;SDS011;23834;48.080;11.682;2023-02-04T11:03:45;1.23;;;0.83;;
38023;SDS011;23834;48.080;11.682;2023-02-04T11:06:16;1.00;;;0.90;;
38023;SDS011;23834;48.080;11.682;2023-02-04T11:08:43;0.70;;;0.70;;
38023;SDS011;23834;48.080;11.682;2023-02-04T11:11:13;1.37;;;0.87;;
38023;SDS011;23834;48.080;11.682;2023-02-04T11:13:40;1.33;;;0.80;;
38023;SDS011;23834;48.080;11.682;2023-02-04T11:18:45;1.00;;;1.00;;
38023;SDS011;23834;48.080;11.682;2023-02-04T11:21:20;2.53;;;0.83;;
38023;SDS011;23834;48.080;11.682;2023-02-04T11:23:46;1.20;;;0.70;;
38023;SDS011;23834;48.080;11.682;2023-02-04T11:26:12;0.87;;;0.87;;
38023;SDS011;23834;48.080;11.682;2023-02-04T11:33:47;1.27;;;1.00;;
38023;SDS011;23834;48.080;11.682;2023-02-04T11:36:14;1.23;;;0.87;;
38023;SDS011;23834;48.080;11.682;2023-02-04T11:38:47;0.70;;;0.70;;
38023;SDS011;23834;48.080;11.682;2023-02-04T11:41:14;1.33;;;0.93;;
38023;SDS011;23834;48.080;11.682;2023-02-04T11:43:40;2.43;;;0.80;;
38023;SDS011;23834;48.080;11.682;2023-02-04T11:46:12;0.80;;;0.73;;
38023;SDS011;23834;48.080;11.682;2023-02-04T11:48:39;0.80;;;0.70;;
38023;SDS011;23834;48.080;11.682;2023-02-04T11:51:10;1.07;;;0.70;;
38023;SDS011;23834;48.080;11.682;2023-02-04T11:53:35;1.30;;;0.73;;
38023;SDS011;23834;48.080;11.682;2023-02-04T11:56:01;0.87;;;0.83;;
38023;SDS011;23834;48.080;11.682;2023-02-04T11:58:27;1.00;;;1.00;;
38023;SDS011;23834;48.080;11.682;2023-02-04T12:00:53;0.80;;;0.70;;
38023;SDS011;23834;48.080;11.682;2023-02-04T12:03:22;0.77;;;0.70;;
38023;SDS011;23834;48.080;11.682;2023-02-04T12:05:48;1.20;;;0.70;;
38023;SDS011;23834;48.080;11.682;2023-02-04T12:11:04;1.90;;;1.00;;
38023;SDS011;23834;48.080;11.682;2023-02-04T12:13:30;1.10;;;0.70;;
38023;SDS011;23834;48.080;11.682;2023-02-04T12:16:00;1.03;;;0.90;;
38023;SDS011;23834;48.080;11.682;2023-02-04T12:18:25;0.87;;;0.70;;
38023;SDS011;23834;48.080;11.682;2023-02-04T12:20:56;0.80;;;0.80;;
38023;SDS011;23834;48.080;11.682;2023-02-04T12:23:22;0.90;;;0.80;;
38023;SDS011;23834;48.080;11.682;2023-02-04T12:25:48;1.27;;;0.80;;
38023;SDS011;23834;48.080;11.682;2023-02-04T12:28:13;0.50;;;0.50;;
38023;SDS011;23834;48.080;11.682;2023-02-04T12:30:38;0.70;;;0.70;;
38023;SDS011;23834;48.080;11.682;2023-02-04T12:33:04;0.67;;;0.63;;
38023;SDS011;23834;48.080;11.682;2023-02-04T12:35:29;0.97;;;0.70;;
38023;SDS011;23834;48.080;11.682;2023-02-04T12:37:54;0.80;;;0.80;;
38023;SDS011;23834;48.080;11.682;2023-02-04T12:40:19;0.73;;;0.70;;
38023;SDS011;23834;48.080;11.682;2023-02-04T12:42:45;0.80;;;0.63;;
38023;SDS011;23834;48.080;11.682;2023-02-04T12:45:11;1.13;;;0.57;;
38023;SDS011;23834;48.080;11.682;2023-02-04T12:47:36;0.90;;;0.60;;
38023;SDS011;23834;48.080;11.682;2023-02-04T12:50:02;0.93;;;0.70;;
38023;SDS011;23834;48.080;11.682;2023-02-04T12:52:28;1.37;;;0.60;;
38023;SDS011;23834;48.080;11.682;2023-02-04T12:54:53;0.60;;;0.60;;
38023;SDS011;23834;48.080;11.682;2023-02-04T12:57:18;0.67;;;0.60;;
38023;SDS011;23834;48.080;11.682;2023-02-04T12:59:44;0.70;;;0.70;;
38023;SDS011;23834;48.080;11.682;2023-02-04T13:02:10;0.80;;;0.73;;
38023;SDS011;23834;48.080;11.682;2023-02-04T13:04:35;0.63;;;0.63;;
38023;SDS011;23834;48.080;11.682;2023-02-04T13:07:00;1.47;;;0.80;;
38023;SDS011;23834;48.080;11.682;2023-02-04T13:09:26;1.07;;;0.77;;
38023;SDS011;23834;48.080;11.682;2023-02-04T13:11:51;0.93;;;0.77;;
38023;SDS011;23834;48.080;11.682;2023-02-04T13:14:16;0.63;;;0.60;;
38023;SDS011;23834;48.080;11.682;2023-02-04T13:16:42;0.70;;;0.70;;
38023;SDS011;23834;48.080;11.682;2023-02-04T13:19:07;0.60;;;0.60;;
38023;SDS011;23834;48.080;11.682;2023-02-04T13:21:32;2.33;;;0.73;;
38023;SDS011;23834;48.080;11.682;2023-02-04T13:23:57;1.70;;;0.90;;
38023;SDS011;23834;48.080;11.682;2023-02-04T13:26:23;0.93;;;0.70;;
38023;SDS011;23834;48.080;11.682;2023-02-04T13:28:49;1.07;;;0.70;;
38023;SDS011;23834;48.080;11.682;2023-02-04T13:31:14;0.90;;;0.67;;
38023;SDS011;23834;48.080;11.682;2023-02-04T13:33:39;0.70;;;0.60;;
38023;SDS011;23834;48.080;11.682;2023-02-04T13:36:04;0.70;;;0.60;;
38023;SDS011;23834;48.080;11.682;2023-02-04T13:38:29;0.63;;;0.63;;
38023;SDS011;23834;48.080;11.682;2023-02-04T13:40:55;0.90;;;0.80;;
38023;SDS011;23834;48.080;11.682;2023-02-04T13:43:20;0.80;;;0.40;;
38023;SDS011;23834;48.080;11.682;2023-02-04T13:45:45;0.80;;;0.60;;
38023;SDS011;23834;48.080;11.682;2023-02-04T13:48:12;0.50;;;0.50;;
38023;SDS011;23834;48.080;11.682;2023-02-04T13:50:38;0.60;;;0.60;;
38023;SDS011;23834;48.080;11.682;2023-02-04T13:53:03;0.70;;;0.67;;
38023;SDS011;23834;48.080;11.682;2023-02-04T13:55:28;1.00;;;0.70;;
38023;SDS011;23834;48.080;11.682;2023-02-04T13:57:53;0.60;;;0.57;;
38023;SDS011;23834;48.080;11.682;2023-02-04T14:00:18;0.70;;;0.70;;
38023;SDS011;23834;48.080;11.682;2023-02-04T14:02:43;0.70;;;0.70;;
38023;SDS011;23834;48.080;11.682;2023-02-04T14:05:09;0.80;;;0.60;;
38023;SDS011;23834;48.080;11.682;2023-02-04T14:07:34;0.80;;;0.70;;
38023;SDS011;23834;48.080;11.682;2023-02-04T14:09:59;1.47;;;0.80;;
38023;SDS011;23834;48.080;11.682;2023-02-04T14:12:24;0.63;;;0.63;;
38023;SDS011;23834;48.080;11.682;2023-02-04T14:14:50;0.80;;;0.70;;
38023;SDS011;23834;48.080;11.682;2023-02-04T14:17:15;0.70;;;0.70;;
38023;SDS011;23834;48.080;11.682;2023-02-04T14:19:40;0.80;;;0.70;;
38023;SDS011;23834;48.080;11.682;2023-02-04T14:22:05;1.23;;;0.60;;
38023;SDS011;23834;48.080;11.682;2023-02-04T14:24:31;0.50;;;0.43;;
38023;SDS011;23834;48.080;11.682;2023-02-04T14:26:56;1.00;;;0.70;;
38023;SDS011;23834;48.080;11.682;2023-02-04T14:29:22;1.60;;;0.87;;
38023;SDS011;23834;48.080;11.682;2023-02-04T14:31:48;0.87;;;0.60;;
38023;SDS011;23834;48.080;11.682;2023-02-04T14:34:13;1.13;;;0.90;;
38023;SDS011;23834;48.080;11.682;2023-02-04T14:36:38;0.83;;;0.60;;
38023;SDS011;23834;48.080;11.682;2023-02-04T14:39:03;0.73;;;0.60;;